Time;durP1;ratioP1;P1;durP2;ratioP2;P2;SDS_P1;SDS_P2;PMS_P1;PMS_P2;Temp;Humidity;BMP_temperature;BMP_pressure;BME280_temperature;BME280_humidity;BME280_pressure;Samples;Min_cycle;Max_cycle;Signal;HPM_P1;HPM_P2
2022/08/18 00:00:25;;;;;;;7.03;5.70;;;;;;;;;;5005192;28;20991;-54
2022/08/18 00:02:51;;;;;;;7.23;6.40;;;;;;;;;;4990729;28;20468;-55
2022/08/18 00:05:17;;;;;;;6.53;5.93;;;;;;;;;;5020164;28;20439;-54
2022/08/18 00:07:43;;;;;;;6.47;5.87;;;;;;;;;;5012119;28;20176;-54
2022/08/18 00:10:09;;;;;;;5.37;4.87;;;;;;;;;;5018711;28;20188;-53
2022/08/18 00:12:39;;;;;;;6.60;5.53;;;;;;;;;;4998808;28;20594;-53
2022/08/18 00:15:06;;;;;;;6.93;6.20;;;;;;;;;;5023350;28;20446;-53
2022/08/18 00:17:32;;;;;;;7.27;6.10;;;;;;;;;;4994792;28;20457;-54
2022/08/18 00:19:58;;;;;;;8.63;6.30;;;;;;;;;;5002742;28;21430;-54
2022/08/18 00:22:24;;;;;;;6.60;5.57;;;;;;;;;;4996320;28;21357;-58
2022/08/18 00:24:51;;;;;;;6.77;6.10;;;;;;;;;;5018794;28;20436;-55
2022/08/18 00:27:20;;;;;;;8.03;5.63;;;;;;;;;;4999289;28;20195;-54
2022/08/18 00:29:46;;;;;;;5.80;5.20;;;;;;;;;;4993165;28;21012;-55
2022/08/18 00:32:13;;;;;;;6.67;5.13;;;;;;;;;;5022337;28;20439;-54
2022/08/18 00:34:39;;;;;;;5.40;4.90;;;;;;;;;;4979103;28;20439;-54
2022/08/18 00:37:05;;;;;;;6.50;5.80;;;;;;;;;;5022364;28;20456;-54
2022/08/18 00:39:33;;;;;;;9.13;6.73;;;;;;;;;;5011894;28;20455;-55
2022/08/18 00:41:59;;;;;;;6.33;5.73;;;;;;;;;;5025208;28;20479;-56
2022/08/18 00:44:25;;;;;;;6.17;5.57;;;;;;;;;;5014462;28;20435;-54
2022/08/18 00:46:51;;;;;;;6.30;5.70;;;;;;;;;;5023022;28;20933;-54
2022/08/18 00:49:17;;;;;;;7.20;6.60;;;;;;;;;;4997606;28;20667;-55
2022/08/18 00:51:46;;;;;;;6.30;5.70;;;;;;;;;;5025419;28;20981;-58
2022/08/18 00:54:20;;;;;;;7.17;5.63;;;;;;;;;;4982941;28;20511;-54
2022/08/18 00:56:48;;;;;;;6.47;5.87;;;;;;;;;;5004895;28;20431;-55
2022/08/18 00:59:17;;;;;;;6.70;6.00;;;;;;;;;;4979695;28;20432;-54
2022/08/18 01:01:43;;;;;;;6.00;5.37;;;;;;;;;;5022642;28;20534;-54
2022/08/18 01:04:12;;;;;;;6.60;5.90;;;;;;;;;;4960395;28;20447;-57
2022/08/18 01:06:45;;;;;;;6.60;5.90;;;;;;;;;;5019981;28;20554;-54
2022/08/18 01:09:11;;;;;;;6.67;5.97;;;;;;;;;;5019722;28;20493;-55
2022/08/18 01:11:37;;;;;;;7.50;6.30;;;;;;;;;;5005576;28;21108;-54
2022/08/18 01:14:04;;;;;;;7.00;6.27;;;;;;;;;;4997816;28;20519;-55
2022/08/18 01:22:34;;;;;;;7.17;6.20;;;;;;;;;;5006324;28;20470;-55
2022/08/18 01:27:45;;;;;;;8.60;5.17;;;;;;;;;;5007962;28;20442;-57
2022/08/18 01:30:12;;;;;;;6.37;5.60;;;;;;;;;;4981121;28;20431;-54
2022/08/18 01:32:38;;;;;;;6.50;5.90;;;;;;;;;;5020658;28;20646;-54
2022/08/18 01:35:07;;;;;;;6.00;5.50;;;;;;;;;;4976124;28;20477;-55
2022/08/18 01:37:33;;;;;;;5.90;5.37;;;;;;;;;;5018275;28;20916;-54
2022/08/18 01:39:59;;;;;;;6.27;5.67;;;;;;;;;;5000658;28;20466;-54
2022/08/18 01:42:25;;;;;;;6.50;5.90;;;;;;;;;;5016853;28;20220;-54
2022/08/18 01:44:51;;;;;;;6.50;5.90;;;;;;;;;;4995669;28;20455;-54
2022/08/18 01:47:18;;;;;;;6.03;5.53;;;;;;;;;;5025722;28;20575;-54
2022/08/18 01:49:44;;;;;;;6.37;5.80;;;;;;;;;;4992416;28;20499;-54
2022/08/18 01:52:11;;;;;;;6.03;5.30;;;;;;;;;;5019917;28;20455;-54
2022/08/18 01:54:39;;;;;;;6.23;5.63;;;;;;;;;;5002144;28;20468;-56
2022/08/18 01:57:05;;;;;;;6.97;6.37;;;;;;;;;;5025441;28;20430;-54
2022/08/18 01:59:34;;;;;;;7.50;5.63;;;;;;;;;;4994989;28;20446;-54
2022/08/18 02:02:00;;;;;;;6.20;5.43;;;;;;;;;;5016301;28;20475;-53
2022/08/18 02:04:27;;;;;;;7.10;6.40;;;;;;;;;;4978309;28;20439;-54
2022/08/18 02:06:54;;;;;;;6.90;5.43;;;;;;;;;;5003069;28;20455;-52
2022/08/18 02:09:21;;;;;;;7.67;6.63;;;;;;;;;;5016065;28;20439;-54
2022/08/18 02:11:47;;;;;;;6.10;5.50;;;;;;;;;;5008088;28;20964;-53
2022/08/18 02:14:13;;;;;;;6.20;5.60;;;;;;;;;;4996479;28;20439;-53
2022/08/18 02:16:38;;;;;;;6.03;5.43;;;;;;;;;;5021723;28;20240;-54
2022/08/18 02:19:04;;;;;;;7.03;6.33;;;;;;;;;;5014632;28;20522;-55
2022/08/18 02:21:30;;;;;;;7.37;5.77;;;;;;;;;;5005515;28;20455;-54
2022/08/18 02:23:56;;;;;;;5.50;4.97;;;;;;;;;;5025051;28;20184;-54
2022/08/18 02:26:22;;;;;;;6.73;6.03;;;;;;;;;;5019771;28;20438;-55
2022/08/18 02:28:48;;;;;;;6.90;6.10;;;;;;;;;;5024935;28;20179;-54
2022/08/18 02:31:15;;;;;;;6.03;5.43;;;;;;;;;;5000131;28;20968;-54
2022/08/18 02:33:41;;;;;;;6.40;5.70;;;;;;;;;;5019354;28;20447;-54
2022/08/18 02:36:08;;;;;;;5.80;5.30;;;;;;;;;;4982881;28;20454;-54
2022/08/18 02:38:34;;;;;;;6.17;5.63;;;;;;;;;;5006563;28;21007;-55
2022/08/18 02:41:00;;;;;;;6.67;6.07;;;;;;;;;;5002585;28;20902;-55
2022/08/18 02:43:27;;;;;;;6.50;5.90;;;;;;;;;;5023939;28;20540;-54
2022/08/18 02:45:53;;;;;;;5.90;5.40;;;;;;;;;;5021452;28;20447;-55
2022/08/18 02:48:34;;;;;;;7.27;6.57;;;;;;;;;;5021618;28;20959;-55
2022/08/18 02:51:14;;;;;;;6.87;5.93;;;;;;;;;;4992417;28;20187;-55
2022/08/18 02:53:40;;;;;;;7.20;6.40;;;;;;;;;;5019440;28;20458;-55
2022/08/18 02:56:19;;;;;;;6.80;6.20;;;;;;;;;;4999729;28;20454;-54
2022/08/18 02:58:45;;;;;;;7.10;6.40;;;;;;;;;;5025330;28;20444;-54
2022/08/18 03:01:11;;;;;;;6.37;5.60;;;;;;;;;;5013693;28;20537;-55
2022/08/18 03:03:37;;;;;;;6.80;5.43;;;;;;;;;;5018751;28;20493;-55
2022/08/18 03:06:04;;;;;;;6.90;5.90;;;;;;;;;;4976050;28;21088;-54
2022/08/18 03:08:31;;;;;;;6.47;5.87;;;;;;;;;;5015300;28;20451;-54
2022/08/18 03:10:57;;;;;;;6.77;5.47;;;;;;;;;;5004089;28;20423;-54
2022/08/18 03:13:22;;;;;;;6.20;5.30;;;;;;;;;;5023388;28;20508;-57
2022/08/18 03:15:48;;;;;;;5.20;4.70;;;;;;;;;;5017579;28;20442;-54
2022/08/18 03:18:15;;;;;;;6.10;5.43;;;;;;;;;;5020380;28;20439;-54
2022/08/18 03:20:43;;;;;;;8.70;5.70;;;;;;;;;;5008334;28;20447;-53
2022/08/18 03:23:08;;;;;;;7.37;6.10;;;;;;;;;;5020620;28;20475;-54
2022/08/18 03:25:34;;;;;;;6.53;5.93;;;;;;;;;;4996272;28;20871;-54
2022/08/18 03:28:02;;;;;;;8.93;6.10;;;;;;;;;;5012981;28;20436;-55
2022/08/18 03:30:28;;;;;;;6.77;6.07;;;;;;;;;;5003398;28;20538;-55
2022/08/18 03:32:54;;;;;;;6.97;6.37;;;;;;;;;;5022773;28;20949;-54
2022/08/18 03:35:20;;;;;;;7.50;6.60;;;;;;;;;;5023649;28;20419;-57
2022/08/18 03:37:46;;;;;;;8.40;6.30;;;;;;;;;;5025586;28;20445;-55
2022/08/18 03:40:12;;;;;;;7.50;6.80;;;;;;;;;;4961770;28;20558;-55
2022/08/18 03:42:38;;;;;;;8.47;6.40;;;;;;;;;;5026754;28;20479;-54
2022/08/18 03:45:05;;;;;;;7.67;6.97;;;;;;;;;;5020640;28;20466;-54
2022/08/18 03:47:31;;;;;;;9.80;7.00;;;;;;;;;;5022458;28;20836;-54
2022/08/18 03:49:58;;;;;;;9.03;6.33;;;;;;;;;;5015883;28;20499;-55
2022/08/18 03:52:24;;;;;;;6.37;5.77;;;;;;;;;;5021092;28;20446;-54
2022/08/18 03:54:50;;;;;;;7.37;6.57;;;;;;;;;;4999393;28;20493;-55
2022/08/18 03:57:16;;;;;;;7.57;6.17;;;;;;;;;;5002392;28;20518;-55
2022/08/18 03:59:42;;;;;;;7.53;6.80;;;;;;;;;;5022914;28;20204;-56
2022/08/18 04:02:08;;;;;;;7.30;6.60;;;;;;;;;;5000881;28;20200;-53
2022/08/18 04:04:34;;;;;;;7.00;5.87;;;;;;;;;;5021555;28;20435;-54
2022/08/18 04:07:06;;;;;;;7.47;6.80;;;;;;;;;;4998114;28;21028;-54
2022/08/18 04:09:32;;;;;;;7.03;6.43;;;;;;;;;;5023896;28;20462;-54
2022/08/18 04:11:58;;;;;;;11.10;6.10;;;;;;;;;;4959701;28;20978;-56
2022/08/18 04:14:26;;;;;;;6.33;5.70;;;;;;;;;;5021090;28;20444;-56
2022/08/18 04:16:52;;;;;;;6.63;5.27;;;;;;;;;;5017708;28;20435;-56
2022/08/18 04:19:18;;;;;;;7.73;6.83;;;;;;;;;;5019868;28;20435;-54
2022/08/18 04:21:45;;;;;;;6.50;5.90;;;;;;;;;;5000300;28;20443;-54
2022/08/18 04:24:11;;;;;;;6.50;5.90;;;;;;;;;;5024219;28;20441;-54
2022/08/18 04:26:38;;;;;;;6.13;5.53;;;;;;;;;;4993725;28;20431;-54
2022/08/18 04:29:05;;;;;;;7.67;6.87;;;;;;;;;;5018824;28;20471;-55
2022/08/18 04:31:30;;;;;;;7.10;5.73;;;;;;;;;;5001379;28;20427;-54
2022/08/18 04:33:57;;;;;;;7.57;6.83;;;;;;;;;;4987781;28;21267;-54
2022/08/18 04:36:23;;;;;;;7.60;6.60;;;;;;;;;;5019424;28;20500;-54
2022/08/18 04:38:50;;;;;;;7.43;6.73;;;;;;;;;;5016673;28;21030;-53
2022/08/18 04:41:16;;;;;;;7.27;6.40;;;;;;;;;;5023586;28;21027;-54
2022/08/18 04:43:43;;;;;;;7.63;6.10;;;;;;;;;;4986812;28;20479;-55
2022/08/18 04:46:10;;;;;;;6.30;5.70;;;;;;;;;;5018010;28;20439;-54
2022/08/18 04:48:39;;;;;;;5.93;5.43;;;;;;;;;;5003052;28;20559;-54
2022/08/18 04:51:08;;;;;;;6.83;6.13;;;;;;;;;;5015043;28;20431;-55
2022/08/18 04:53:43;;;;;;;6.60;6.00;;;;;;;;;;5004330;28;20438;-56
2022/08/18 04:56:12;;;;;;;6.67;6.07;;;;;;;;;;5017778;28;20447;-56
2022/08/18 04:58:38;;;;;;;8.10;6.20;;;;;;;;;;4981423;28;20490;-56
2022/08/18 05:01:04;;;;;;;8.13;7.43;;;;;;;;;;5017677;28;20440;-55
2022/08/18 05:03:30;;;;;;;7.30;6.60;;;;;;;;;;5008226;28;21527;-56
2022/08/18 05:05:58;;;;;;;7.00;6.30;;;;;;;;;;5013794;28;20479;-56
2022/08/18 05:08:24;;;;;;;6.77;6.10;;;;;;;;;;5015892;28;20180;-57
2022/08/18 05:10:57;;;;;;;8.17;6.67;;;;;;;;;;5001780;28;20431;-55
2022/08/18 05:13:24;;;;;;;7.60;6.70;;;;;;;;;;5018841;28;20444;-55
2022/08/18 05:15:55;;;;;;;7.07;5.90;;;;;;;;;;5020088;28;20471;-53
2022/08/18 05:18:23;;;;;;;7.07;6.37;;;;;;;;;;4998550;28;21085;-56
2022/08/18 05:20:50;;;;;;;6.40;5.90;;;;;;;;;;4998397;28;20818;-54
2022/08/18 05:23:28;;;;;;;6.80;6.10;;;;;;;;;;4998833;28;20478;-56
2022/08/18 05:25:59;;;;;;;7.53;6.83;;;;;;;;;;5015586;28;20487;-55
2022/08/18 05:28:25;;;;;;;7.17;6.57;;;;;;;;;;5021269;28;20438;-55
2022/08/18 05:30:51;;;;;;;6.90;6.33;;;;;;;;;;5015805;28;20834;-56
2022/08/18 05:33:24;;;;;;;7.90;6.40;;;;;;;;;;5018680;28;20443;-56
2022/08/18 05:35:51;;;;;;;7.53;6.77;;;;;;;;;;5013638;28;20454;-57
2022/08/18 05:38:24;;;;;;;7.30;6.60;;;;;;;;;;5011205;28;20772;-56
2022/08/18 05:41:14;;;;;;;7.20;6.50;;;;;;;;;;5007455;28;20458;-55
2022/08/18 05:43:40;;;;;;;7.20;6.50;;;;;;;;;;4997795;28;20471;-55
2022/08/18 05:46:09;;;;;;;7.63;6.87;;;;;;;;;;5017996;28;20443;-55
2022/08/18 05:48:35;;;;;;;7.33;6.63;;;;;;;;;;5000009;28;20455;-56
2022/08/18 05:51:03;;;;;;;7.30;6.60;;;;;;;;;;5022005;28;20443;-55
2022/08/18 05:58:58;;;;;;;7.60;6.90;;;;;;;;;;4978172;28;20497;-56
2022/08/18 06:01:35;;;;;;;6.50;5.90;;;;;;;;;;5001744;28;20439;-54
2022/08/18 06:04:02;;;;;;;7.53;6.83;;;;;;;;;;4977845;28;20937;-55
2022/08/18 06:06:30;;;;;;;7.87;7.10;;;;;;;;;;5019860;28;20450;-55
2022/08/18 06:09:02;;;;;;;7.33;6.73;;;;;;;;;;4996666;28;20447;-55
2022/08/18 06:11:28;;;;;;;7.10;6.40;;;;;;;;;;5023700;28;20746;-56
2022/08/18 06:13:55;;;;;;;7.73;6.97;;;;;;;;;;5000709;28;20435;-54
2022/08/18 06:16:32;;;;;;;8.40;7.63;;;;;;;;;;5022372;28;20526;-56
2022/08/18 06:19:13;;;;;;;8.17;7.47;;;;;;;;;;4999214;28;20504;-55
2022/08/18 06:22:14;;;;;;;8.00;7.20;;;;;;;;;;5018630;28;20892;-55
2022/08/18 06:24:55;;;;;;;9.07;6.97;;;;;;;;;;5007286;28;20542;-54
2022/08/18 06:27:31;;;;;;;6.87;6.27;;;;;;;;;;4989494;28;20443;-56
2022/08/18 06:30:06;;;;;;;6.97;6.37;;;;;;;;;;5001328;28;20431;-54
2022/08/18 06:32:51;;;;;;;8.00;6.77;;;;;;;;;;4982819;28;20446;-54
2022/08/18 06:35:36;;;;;;;8.07;7.27;;;;;;;;;;5020348;28;20444;-55
2022/08/18 06:40:49;;;;;;;7.83;7.03;;;;;;;;;;4987089;28;22737;-55
2022/08/18 06:43:16;;;;;;;7.00;6.30;;;;;;;;;;5019492;28;20860;-55
2022/08/18 06:45:51;;;;;;;6.97;6.37;;;;;;;;;;5012068;28;20729;-55
2022/08/18 06:48:24;;;;;;;10.10;7.90;;;;;;;;;;4983533;28;20497;-55
2022/08/18 06:50:53;;;;;;;7.27;6.57;;;;;;;;;;4995720;28;20871;-54
2022/08/18 06:53:20;;;;;;;7.00;6.30;;;;;;;;;;5019967;28;20469;-55
2022/08/18 06:56:03;;;;;;;7.47;6.77;;;;;;;;;;4993820;28;20564;-56
2022/08/18 06:58:30;;;;;;;7.23;6.50;;;;;;;;;;5023871;28;20462;-55
2022/08/18 07:01:00;;;;;;;8.60;6.80;;;;;;;;;;5014282;28;20464;-55
2022/08/18 07:03:36;;;;;;;7.13;6.20;;;;;;;;;;4991868;28;21072;-55
2022/08/18 07:06:03;;;;;;;8.00;6.60;;;;;;;;;;5011507;28;20732;-55
2022/08/18 07:08:32;;;;;;;7.47;6.77;;;;;;;;;;5028184;28;20449;-55
2022/08/18 07:11:19;;;;;;;7.63;6.83;;;;;;;;;;5001444;28;21644;-56
2022/08/18 07:13:45;;;;;;;6.70;6.00;;;;;;;;;;5019301;28;20486;-55
2022/08/18 07:16:16;;;;;;;7.03;6.37;;;;;;;;;;4963538;28;22475;-55
2022/08/18 07:18:42;;;;;;;8.20;7.40;;;;;;;;;;5027320;28;20467;-55
2022/08/18 07:21:08;;;;;;;7.00;6.30;;;;;;;;;;4981313;28;20662;-54
2022/08/18 07:23:37;;;;;;;8.60;7.80;;;;;;;;;;5027421;28;20482;-55
2022/08/18 07:26:13;;;;;;;7.10;6.40;;;;;;;;;;4966546;28;20769;-55
2022/08/18 07:28:49;;;;;;;6.87;6.27;;;;;;;;;;5021603;28;20792;-56
2022/08/18 07:31:19;;;;;;;7.13;6.50;;;;;;;;;;4987889;28;20423;-55
2022/08/18 07:33:48;;;;;;;7.20;6.50;;;;;;;;;;5010187;28;20455;-55
2022/08/18 07:36:14;;;;;;;7.03;6.33;;;;;;;;;;5006953;28;20768;-54
2022/08/18 07:38:42;;;;;;;8.30;7.47;;;;;;;;;;5000903;28;20492;-54
2022/08/18 07:41:13;;;;;;;7.53;6.83;;;;;;;;;;4999361;28;20977;-54
2022/08/18 07:43:41;;;;;;;8.00;7.23;;;;;;;;;;4999196;28;20958;-53
2022/08/18 07:46:15;;;;;;;8.07;7.27;;;;;;;;;;4996837;28;20527;-56
2022/08/18 07:48:41;;;;;;;7.70;6.90;;;;;;;;;;5003610;28;20489;-55
2022/08/18 07:51:18;;;;;;;7.67;6.93;;;;;;;;;;5012381;28;20804;-55
2022/08/18 07:53:54;;;;;;;8.83;6.70;;;;;;;;;;4994021;28;20188;-53
2022/08/18 07:56:23;;;;;;;7.93;6.67;;;;;;;;;;4971257;28;20440;-56
2022/08/18 07:58:58;;;;;;;8.30;7.30;;;;;;;;;;5011049;28;20434;-55
2022/08/18 08:01:28;;;;;;;7.37;6.53;;;;;;;;;;4993728;28;20431;-55
2022/08/18 08:04:04;;;;;;;9.50;8.50;;;;;;;;;;5016332;28;20494;-55
2022/08/18 08:06:32;;;;;;;7.30;6.60;;;;;;;;;;4995695;28;20514;-54
2022/08/18 08:09:07;;;;;;;9.40;6.80;;;;;;;;;;4980925;28;20428;-55
2022/08/18 08:11:39;;;;;;;9.30;7.00;;;;;;;;;;5016070;28;20466;-56
2022/08/18 08:14:13;;;;;;;7.37;6.57;;;;;;;;;;5020472;28;20427;-54
2022/08/18 08:16:46;;;;;;;11.10;6.90;;;;;;;;;;4972298;28;20519;-53
2022/08/18 08:19:24;;;;;;;9.13;6.83;;;;;;;;;;5027078;28;20423;-54
2022/08/18 08:22:00;;;;;;;8.03;7.23;;;;;;;;;;5001604;28;20439;-56
2022/08/18 08:24:32;;;;;;;8.00;7.17;;;;;;;;;;5026594;28;21311;-55
2022/08/18 08:27:01;;;;;;;8.03;7.20;;;;;;;;;;4964747;28;20471;-55
2022/08/18 08:29:27;;;;;;;7.43;6.73;;;;;;;;;;4991293;28;20440;-56
2022/08/18 08:31:56;;;;;;;9.67;7.13;;;;;;;;;;5013953;28;20431;-54
2022/08/18 08:34:56;;;;;;;7.83;6.93;;;;;;;;;;4988631;28;20195;-54
2022/08/18 08:37:42;;;;;;;6.87;6.27;;;;;;;;;;4996292;28;20462;-55
2022/08/18 08:40:30;;;;;;;7.80;7.20;;;;;;;;;;4981383;28;20460;-55
2022/08/18 08:42:59;;;;;;;8.57;7.67;;;;;;;;;;5007763;28;20501;-54
2022/08/18 08:45:39;;;;;;;8.60;7.70;;;;;;;;;;4980972;28;20443;-55
2022/08/18 08:48:13;;;;;;;7.60;6.90;;;;;;;;;;4987031;28;20506;-55
2022/08/18 08:50:48;;;;;;;8.40;7.60;;;;;;;;;;4979256;28;20450;-56
2022/08/18 08:53:20;;;;;;;9.30;7.13;;;;;;;;;;5008242;28;20469;-55
2022/08/18 08:55:47;;;;;;;8.63;7.27;;;;;;;;;;4998792;28;20447;-55
2022/08/18 08:58:25;;;;;;;8.77;7.57;;;;;;;;;;5025541;28;20880;-53
2022/08/18 09:00:51;;;;;;;7.73;7.00;;;;;;;;;;4959114;28;20494;-55
2022/08/18 09:03:30;;;;;;;13.43;7.53;;;;;;;;;;5020692;28;20526;-56
2022/08/18 09:06:03;;;;;;;9.57;6.80;;;;;;;;;;5001097;28;20439;-55
2022/08/18 09:08:40;;;;;;;8.70;7.90;;;;;;;;;;5003694;28;20438;-55
2022/08/18 09:11:22;;;;;;;8.60;7.80;;;;;;;;;;4957542;28;20514;-55
2022/08/18 09:13:57;;;;;;;12.60;7.90;;;;;;;;;;5019641;28;20524;-54
2022/08/18 09:16:23;;;;;;;8.30;7.47;;;;;;;;;;4998180;28;20537;-55
2022/08/18 09:18:49;;;;;;;9.63;8.73;;;;;;;;;;4994433;28;20448;-56
2022/08/18 09:21:27;;;;;;;9.60;8.70;;;;;;;;;;5018014;28;20193;-54
2022/08/18 09:23:57;;;;;;;11.43;8.63;;;;;;;;;;4970005;28;20284;-54
2022/08/18 09:26:23;;;;;;;8.50;7.80;;;;;;;;;;5021557;28;20952;-55
2022/08/18 09:28:55;;;;;;;9.93;8.90;;;;;;;;;;4993359;28;20551;-55
2022/08/18 09:31:21;;;;;;;11.40;9.10;;;;;;;;;;5004580;28;20184;-55
2022/08/18 09:34:00;;;;;;;8.70;7.90;;;;;;;;;;4957141;28;20491;-55
2022/08/18 09:36:44;;;;;;;8.77;7.97;;;;;;;;;;4971517;28;20454;-56
2022/08/18 09:41:57;;;;;;;9.00;8.20;;;;;;;;;;4998970;28;20469;-55
2022/08/18 09:44:42;;;;;;;9.20;8.20;;;;;;;;;;5017859;28;20558;-55
2022/08/18 09:47:08;;;;;;;8.10;7.30;;;;;;;;;;4987902;28;20469;-55
2022/08/18 09:49:42;;;;;;;11.47;8.67;;;;;;;;;;5018128;28;20447;-58
2022/08/18 09:52:20;;;;;;;9.93;9.03;;;;;;;;;;4994086;28;20470;-56
2022/08/18 09:54:53;;;;;;;10.17;7.77;;;;;;;;;;5015286;28;20893;-55
2022/08/18 09:57:28;;;;;;;8.40;7.60;;;;;;;;;;4990875;28;20443;-56
2022/08/18 09:59:54;;;;;;;9.47;8.57;;;;;;;;;;5016975;28;20447;-55
2022/08/18 10:02:26;;;;;;;10.17;9.17;;;;;;;;;;4996359;28;20525;-54
2022/08/18 10:05:12;;;;;;;9.50;8.47;;;;;;;;;;5024087;28;20442;-56
2022/08/18 10:07:39;;;;;;;11.80;9.53;;;;;;;;;;4995909;28;20435;-55
2022/08/18 10:10:23;;;;;;;9.80;8.90;;;;;;;;;;5007440;28;20470;-58
2022/08/18 10:12:59;;;;;;;11.43;9.77;;;;;;;;;;5018361;28;20521;-55
2022/08/18 10:15:44;;;;;;;11.20;8.80;;;;;;;;;;4986380;28;20442;-55
2022/08/18 10:18:28;;;;;;;9.80;8.93;;;;;;;;;;5019640;28;20436;-53
2022/08/18 10:20:54;;;;;;;11.20;9.50;;;;;;;;;;4988419;28;20439;-55
2022/08/18 10:23:39;;;;;;;11.77;10.63;;;;;;;;;;5017202;28;20479;-55
2022/08/18 10:26:05;;;;;;;12.90;9.13;;;;;;;;;;4990965;28;20562;-55
2022/08/18 10:28:51;;;;;;;11.07;9.97;;;;;;;;;;5019947;28;20509;-54
2022/08/18 10:31:17;;;;;;;9.30;8.40;;;;;;;;;;4994259;28;20829;-54
2022/08/18 10:34:00;;;;;;;12.00;10.50;;;;;;;;;;5023307;28;20873;-56
2022/08/18 10:36:52;;;;;;;11.20;10.00;;;;;;;;;;4959318;28;20442;-55
2022/08/18 10:39:19;;;;;;;14.03;10.17;;;;;;;;;;4999258;28;20443;-55
2022/08/18 10:41:50;;;;;;;11.90;9.30;;;;;;;;;;5000984;28;20430;-55
2022/08/18 10:44:16;;;;;;;11.20;10.13;;;;;;;;;;5022599;28;20443;-54
2022/08/18 10:46:42;;;;;;;12.53;11.43;;;;;;;;;;4999046;28;20511;-55
2022/08/18 10:49:12;;;;;;;12.73;10.37;;;;;;;;;;5019244;28;20435;-56
2022/08/18 10:52:17;;;;;;;11.10;10.10;;;;;;;;;;4998578;28;20927;-56
2022/08/18 10:55:01;;;;;;;13.67;11.07;;;;;;;;;;4938377;28;20423;-56
2022/08/18 10:57:30;;;;;;;13.53;11.10;;;;;;;;;;4916983;28;20446;-56
2022/08/18 11:00:19;;;;;;;11.67;10.60;;;;;;;;;;4992154;28;20427;-56
2022/08/18 11:03:08;;;;;;;11.20;10.30;;;;;;;;;;4964711;28;21316;-56
2022/08/18 11:05:34;;;;;;;12.43;10.47;;;;;;;;;;5018302;28;20435;-56
2022/08/18 11:08:06;;;;;;;10.07;9.13;;;;;;;;;;4969747;28;20458;-56
2022/08/18 11:10:42;;;;;;;10.30;9.40;;;;;;;;;;5018585;28;20188;-56
2022/08/18 11:13:15;;;;;;;10.50;9.50;;;;;;;;;;5004296;28;20970;-57
2022/08/18 11:16:00;;;;;;;9.87;8.87;;;;;;;;;;5014000;28;20512;-56
2022/08/18 11:18:36;;;;;;;11.43;9.57;;;;;;;;;;4998821;28;20478;-56
2022/08/18 11:21:20;;;;;;;11.00;10.00;;;;;;;;;;5022440;28;20423;-55
2022/08/18 11:24:01;;;;;;;11.57;10.50;;;;;;;;;;4995130;28;20490;-57
2022/08/18 11:26:29;;;;;;;10.60;9.03;;;;;;;;;;5017375;28;20439;-54
2022/08/18 11:28:55;;;;;;;11.50;10.30;;;;;;;;;;4970635;28;20439;-56
2022/08/18 11:31:21;;;;;;;9.50;8.60;;;;;;;;;;4999374;28;20443;-55
2022/08/18 11:33:47;;;;;;;12.10;10.13;;;;;;;;;;4990400;28;21161;-54
2022/08/18 11:36:13;;;;;;;11.07;10.10;;;;;;;;;;4992449;28;20185;-56
2022/08/18 11:38:39;;;;;;;11.20;10.10;;;;;;;;;;4983732;28;20467;-55
2022/08/18 11:41:12;;;;;;;14.70;13.07;;;;;;;;;;5010051;28;20439;-55
2022/08/18 11:43:38;;;;;;;16.93;15.20;;;;;;;;;;4984903;28;21308;-56
2022/08/18 11:46:33;;;;;;;12.60;10.30;;;;;;;;;;5002276;28;20438;-56
2022/08/18 11:49:12;;;;;;;12.90;10.97;;;;;;;;;;5008507;28;20505;-55
2022/08/18 11:51:56;;;;;;;23.43;18.20;;;;;;;;;;4984738;28;20474;-56
2022/08/18 11:54:32;;;;;;;12.20;10.50;;;;;;;;;;4992018;28;20881;-56
2022/08/18 11:57:17;;;;;;;11.60;10.50;;;;;;;;;;4967443;28;21544;-57
2022/08/18 11:59:43;;;;;;;11.97;10.80;;;;;;;;;;5012309;28;20446;-56
2022/08/18 12:02:10;;;;;;;11.53;10.33;;;;;;;;;;5004161;28;20797;-55
2022/08/18 12:04:39;;;;;;;11.60;10.50;;;;;;;;;;5003031;28;20447;-55
2022/08/18 12:07:07;;;;;;;11.23;9.80;;;;;;;;;;4939958;28;20734;-56
2022/08/18 12:09:35;;;;;;;16.33;11.93;;;;;;;;;;4985259;28;20680;-55
2022/08/18 12:12:06;;;;;;;11.17;9.73;;;;;;;;;;4946669;28;21014;-56
2022/08/18 12:14:34;;;;;;;11.20;10.10;;;;;;;;;;4991515;28;20504;-57
2022/08/18 12:17:00;;;;;;;11.93;10.60;;;;;;;;;;4992461;28;20527;-56
2022/08/18 12:19:32;;;;;;;11.17;10.07;;;;;;;;;;5018892;28;20432;-56
2022/08/18 12:21:58;;;;;;;11.60;10.03;;;;;;;;;;4975134;28;20443;-56
2022/08/18 12:24:26;;;;;;;10.47;9.37;;;;;;;;;;5017805;28;20530;-56
2022/08/18 12:26:57;;;;;;;10.80;9.90;;;;;;;;;;4995118;28;20437;-55
2022/08/18 12:29:23;;;;;;;21.70;11.70;;;;;;;;;;4999676;28;20508;-56
2022/08/18 12:31:50;;;;;;;13.63;10.03;;;;;;;;;;4992369;28;20779;-57
2022/08/18 12:34:16;;;;;;;15.57;9.70;;;;;;;;;;5020658;28;20443;-55
2022/08/18 12:36:55;;;;;;;11.13;10.03;;;;;;;;;;4988428;28;20435;-56
2022/08/18 12:39:23;;;;;;;10.33;9.43;;;;;;;;;;5019419;28;20438;-57
2022/08/18 12:41:49;;;;;;;10.50;9.50;;;;;;;;;;5001108;28;20467;-56
2022/08/18 12:44:15;;;;;;;10.13;9.10;;;;;;;;;;5005305;28;20981;-57
2022/08/18 12:46:57;;;;;;;10.37;9.23;;;;;;;;;;4984778;28;21368;-56
2022/08/18 12:49:23;;;;;;;10.60;9.60;;;;;;;;;;5013508;28;20453;-56
2022/08/18 12:51:54;;;;;;;9.90;9.00;;;;;;;;;;5000169;28;20431;-57
2022/08/18 12:54:21;;;;;;;10.13;9.23;;;;;;;;;;5025037;28;20447;-56
2022/08/18 12:56:53;;;;;;;9.30;7.90;;;;;;;;;;4997134;28;20876;-58
2022/08/18 12:59:22;;;;;;;8.83;7.93;;;;;;;;;;5021727;28;20212;-56
2022/08/18 13:01:48;;;;;;;9.83;8.97;;;;;;;;;;5008405;28;20443;-55
2022/08/18 13:04:15;;;;;;;8.67;7.97;;;;;;;;;;5023133;28;20543;-56
2022/08/18 13:06:43;;;;;;;9.33;8.50;;;;;;;;;;4996790;28;20227;-56
2022/08/18 13:09:09;;;;;;;9.50;8.20;;;;;;;;;;5012996;28;20445;-57
2022/08/18 13:11:37;;;;;;;9.10;8.13;;;;;;;;;;4993554;28;20455;-56
2022/08/18 13:14:11;;;;;;;10.63;9.63;;;;;;;;;;5008414;28;20562;-55
2022/08/18 13:16:39;;;;;;;10.17;9.17;;;;;;;;;;5005289;28;20917;-56
2022/08/18 13:19:06;;;;;;;9.30;8.53;;;;;;;;;;5004943;28;20440;-56
2022/08/18 13:21:32;;;;;;;9.33;8.43;;;;;;;;;;4989216;28;20530;-55
2022/08/18 13:23:59;;;;;;;11.40;8.07;;;;;;;;;;4997133;28;20544;-57
2022/08/18 13:26:26;;;;;;;9.30;8.50;;;;;;;;;;5000532;28;20439;-57
2022/08/18 13:28:52;;;;;;;9.33;8.53;;;;;;;;;;5021284;28;21468;-56
2022/08/18 13:31:26;;;;;;;10.97;9.43;;;;;;;;;;5018416;28;20458;-55
2022/08/18 13:33:52;;;;;;;9.53;8.63;;;;;;;;;;5012784;28;20492;-57
2022/08/18 13:36:18;;;;;;;9.97;9.00;;;;;;;;;;4995523;28;20428;-55
2022/08/18 13:38:44;;;;;;;11.13;10.00;;;;;;;;;;5007204;28;20458;-57
2022/08/18 13:41:11;;;;;;;10.80;9.90;;;;;;;;;;5001700;28;20877;-54
2022/08/18 13:43:40;;;;;;;9.93;9.03;;;;;;;;;;4998389;28;20470;-53
2022/08/18 13:46:07;;;;;;;10.80;9.70;;;;;;;;;;5003942;28;21009;-56
2022/08/18 13:48:33;;;;;;;10.10;9.20;;;;;;;;;;5025075;28;20740;-56
2022/08/18 13:51:00;;;;;;;8.90;8.10;;;;;;;;;;5020439;28;20961;-55
2022/08/18 13:53:26;;;;;;;10.10;9.20;;;;;;;;;;4987786;28;20439;-54
2022/08/18 13:55:52;;;;;;;9.47;8.67;;;;;;;;;;5018196;28;20424;-55
2022/08/18 13:58:18;;;;;;;9.40;8.60;;;;;;;;;;4969008;28;20443;-55
2022/08/18 14:00:44;;;;;;;9.47;8.67;;;;;;;;;;5013385;28;20442;-57
2022/08/18 14:03:11;;;;;;;14.07;11.73;;;;;;;;;;4991847;28;20817;-54
2022/08/18 14:05:37;;;;;;;10.13;8.73;;;;;;;;;;5021524;28;20928;-55
2022/08/18 14:08:03;;;;;;;10.83;9.47;;;;;;;;;;4992173;28;20451;-58
2022/08/18 14:10:29;;;;;;;10.23;9.33;;;;;;;;;;5014739;28;21261;-55
2022/08/18 14:12:55;;;;;;;9.23;8.40;;;;;;;;;;4971609;28;20882;-56
2022/08/18 14:15:21;;;;;;;9.60;8.70;;;;;;;;;;5013205;28;20439;-57
2022/08/18 14:17:47;;;;;;;10.03;9.00;;;;;;;;;;4991384;28;21092;-56
2022/08/18 14:28:29;;;;;;;9.77;8.77;;;;;;;;;;4983420;28;20526;-56
2022/08/18 14:30:55;;;;;;;9.00;8.20;;;;;;;;;;5018397;28;20466;-56
2022/08/18 14:33:22;;;;;;;9.30;8.40;;;;;;;;;;4996688;28;20552;-54
2022/08/18 14:35:51;;;;;;;9.23;8.23;;;;;;;;;;4988815;28;20444;-61
2022/08/18 14:38:17;;;;;;;8.20;7.40;;;;;;;;;;5003521;28;20427;-57
2022/08/18 14:40:46;;;;;;;9.83;8.87;;;;;;;;;;4994711;28;21012;-55
2022/08/18 14:43:13;;;;;;;10.30;9.23;;;;;;;;;;5019655;28;20482;-57
2022/08/18 14:45:39;;;;;;;9.70;8.80;;;;;;;;;;4998012;28;20535;-55
2022/08/18 14:48:06;;;;;;;9.87;8.87;;;;;;;;;;5019035;28;20430;-55
2022/08/18 14:50:32;;;;;;;9.67;8.67;;;;;;;;;;5016317;28;20439;-56
2022/08/18 14:52:58;;;;;;;10.10;9.07;;;;;;;;;;4999925;28;20469;-56
2022/08/18 14:55:24;;;;;;;9.77;8.93;;;;;;;;;;4976757;28;20514;-57
2022/08/18 14:57:50;;;;;;;10.87;9.20;;;;;;;;;;5019856;28;20445;-56
2022/08/18 15:00:17;;;;;;;9.50;8.70;;;;;;;;;;4993153;28;20482;-56
2022/08/18 15:02:44;;;;;;;8.93;8.13;;;;;;;;;;5001775;28;21498;-56
2022/08/18 15:05:10;;;;;;;9.37;8.57;;;;;;;;;;4998753;28;20474;-55
2022/08/18 15:07:38;;;;;;;8.83;8.13;;;;;;;;;;5022144;28;20783;-53
2022/08/18 15:10:09;;;;;;;10.60;7.80;;;;;;;;;;4995104;28;20443;-57
2022/08/18 15:12:35;;;;;;;7.77;7.17;;;;;;;;;;5020697;28;20903;-54
2022/08/18 15:15:02;;;;;;;9.27;8.40;;;;;;;;;;4994907;28;20450;-55
2022/08/18 15:17:28;;;;;;;9.40;8.53;;;;;;;;;;5004579;28;20420;-55
2022/08/18 15:19:54;;;;;;;8.37;7.57;;;;;;;;;;5005280;28;20435;-55
2022/08/18 15:28:08;;;;;;;9.00;7.77;;;;;;;;;;5001634;28;20477;-56